Time;durP1;ratioP1;P1;durP2;ratioP2;P2;SDS_P1;SDS_P2;PMS_P1;PMS_P2;Temp;Humidity;BMP_temperature;BMP_pressure;BME280_temperature;BME280_humidity;BME280_pressure;Samples;Min_cycle;Max_cycle;Signal;HPM_P1;HPM_P2
2022/09/25 00:00:31;;;;;;;1.00;1.00;;;;;;;;;;5093414;28;20227;-79
2022/09/25 00:02:58;;;;;;;1.57;1.47;;;;;;;;;;5092904;28;20203;-79
2022/09/25 00:05:24;;;;;;;1.80;1.70;;;;;;;;;;5090683;28;20200;-79
2022/09/25 00:07:51;;;;;;;1.37;1.27;;;;;;;;;;5085961;28;20208;-79
2022/09/25 00:10:18;;;;;;;1.47;1.37;;;;;;;;;;5083030;28;20643;-79
2022/09/25 00:12:46;;;;;;;1.20;1.10;;;;;;;;;;5092549;28;20686;-79
2022/09/25 00:15:13;;;;;;;1.50;1.40;;;;;;;;;;5092586;28;20203;-79
2022/09/25 00:17:40;;;;;;;1.40;1.37;;;;;;;;;;5092450;28;20718;-79
2022/09/25 00:20:07;;;;;;;1.30;1.27;;;;;;;;;;5091900;28;20706;-79
2022/09/25 00:22:33;;;;;;;1.10;1.10;;;;;;;;;;5092573;28;20675;-79
2022/09/25 00:25:02;;;;;;;1.20;1.20;;;;;;;;;;5092644;28;20589;-80
2022/09/25 00:27:29;;;;;;;1.23;1.13;;;;;;;;;;5092529;28;20215;-80
2022/09/25 00:29:58;;;;;;;1.97;1.80;;;;;;;;;;5092186;28;20208;-79
2022/09/25 00:32:25;;;;;;;0.83;0.83;;;;;;;;;;5078410;28;20207;-80
2022/09/25 00:34:52;;;;;;;1.17;1.13;;;;;;;;;;5092133;28;20200;-80
2022/09/25 00:37:18;;;;;;;1.40;1.30;;;;;;;;;;5090015;28;20195;-80
2022/09/25 00:39:45;;;;;;;1.43;1.40;;;;;;;;;;5083026;28;20239;-79
2022/09/25 00:42:13;;;;;;;1.50;1.40;;;;;;;;;;5092347;28;20656;-80
2022/09/25 00:44:59;;;;;;;1.30;1.20;;;;;;;;;;5091892;28;20679;-80
2022/09/25 00:47:32;;;;;;;1.10;1.10;;;;;;;;;;5092374;28;20207;-79
2022/09/25 00:50:01;;;;;;;1.20;1.20;;;;;;;;;;5091735;28;20266;-79
2022/09/25 00:52:29;;;;;;;1.37;1.33;;;;;;;;;;5088884;28;20231;-80
2022/09/25 00:54:58;;;;;;;1.23;1.23;;;;;;;;;;5081583;28;20208;-79
2022/09/25 00:57:28;;;;;;;1.77;1.30;;;;;;;;;;5092173;28;20200;-80
2022/09/25 00:59:59;;;;;;;0.97;0.97;;;;;;;;;;5091656;28;20224;-80
2022/09/25 01:02:28;;;;;;;1.23;1.20;;;;;;;;;;5091549;28;20420;-79
2022/09/25 01:04:57;;;;;;;2.87;1.20;;;;;;;;;;5091756;28;20694;-79
2022/09/25 01:07:23;;;;;;;1.03;1.03;;;;;;;;;;5082048;28;20251;-80
2022/09/25 01:09:50;;;;;;;2.37;1.53;;;;;;;;;;5091547;28;20322;-79
2022/09/25 01:12:17;;;;;;;2.10;1.50;;;;;;;;;;5091830;28;20690;-79
2022/09/25 01:14:44;;;;;;;1.57;1.57;;;;;;;;;;5090769;28;20200;-79
2022/09/25 01:17:17;;;;;;;1.43;1.20;;;;;;;;;;5091805;28;20207;-79
2022/09/25 01:19:50;;;;;;;1.10;1.10;;;;;;;;;;5087496;28;20252;-79
2022/09/25 01:22:25;;;;;;;1.43;1.43;;;;;;;;;;5082682;28;20203;-79
2022/09/25 01:25:03;;;;;;;1.40;1.30;;;;;;;;;;5091608;28;20637;-80
2022/09/25 01:27:36;;;;;;;2.57;1.30;;;;;;;;;;5091409;28;20208;-79
2022/09/25 01:30:10;;;;;;;1.00;1.00;;;;;;;;;;5090841;28;20211;-80
2022/09/25 01:32:45;;;;;;;1.57;1.47;;;;;;;;;;5091599;28;20286;-79
2022/09/25 01:35:17;;;;;;;1.53;1.43;;;;;;;;;;5091256;28;20199;-79
2022/09/25 01:37:47;;;;;;;0.97;0.97;;;;;;;;;;5087031;28;20210;-79
2022/09/25 01:40:17;;;;;;;0.93;0.93;;;;;;;;;;5089431;28;20220;-80
2022/09/25 01:42:48;;;;;;;1.13;1.13;;;;;;;;;;5091039;28;20200;-79
2022/09/25 01:45:19;;;;;;;1.53;1.43;;;;;;;;;;5090869;28;20203;-80
2022/09/25 01:47:49;;;;;;;1.30;1.20;;;;;;;;;;5091062;28;20204;-79
2022/09/25 01:50:19;;;;;;;1.27;1.27;;;;;;;;;;5090800;28;20702;-79
2022/09/25 01:52:48;;;;;;;1.30;1.20;;;;;;;;;;5090683;28;20207;-80
2022/09/25 01:55:18;;;;;;;1.60;1.50;;;;;;;;;;5090943;28;20196;-80
2022/09/25 01:57:48;;;;;;;1.20;1.20;;;;;;;;;;5091218;28;20211;-79
2022/09/25 02:00:20;;;;;;;1.13;1.13;;;;;;;;;;5090387;28;20251;-79
2022/09/25 02:02:54;;;;;;;1.00;1.00;;;;;;;;;;5090618;28;20188;-80
2022/09/25 02:05:23;;;;;;;0.90;0.90;;;;;;;;;;5079719;28;20576;-80
2022/09/25 02:07:54;;;;;;;1.00;1.00;;;;;;;;;;5081266;28;20678;-80
2022/09/25 02:10:24;;;;;;;1.20;1.20;;;;;;;;;;5090580;28;20234;-80
2022/09/25 02:12:53;;;;;;;1.37;1.33;;;;;;;;;;5090421;28;20659;-80
2022/09/25 02:15:24;;;;;;;1.10;1.10;;;;;;;;;;5090662;28;20204;-80
2022/09/25 02:20:41;;;;;;;1.20;1.10;;;;;;;;;;5078926;28;20239;-79
2022/09/25 02:23:14;;;;;;;1.10;1.10;;;;;;;;;;5073910;28;20283;-79
2022/09/25 02:25:44;;;;;;;1.07;1.07;;;;;;;;;;5090143;28;20204;-79
2022/09/25 02:28:10;;;;;;;1.60;1.50;;;;;;;;;;5090475;28;20197;-79
2022/09/25 02:30:39;;;;;;;1.30;1.30;;;;;;;;;;5090841;28;20207;-79
2022/09/25 02:33:05;;;;;;;1.00;1.00;;;;;;;;;;5090448;28;20200;-79
2022/09/25 02:35:32;;;;;;;1.67;1.57;;;;;;;;;;5090094;28;20650;-80
2022/09/25 02:38:00;;;;;;;1.50;1.40;;;;;;;;;;5088528;28;20615;-80
2022/09/25 02:40:34;;;;;;;0.90;0.90;;;;;;;;;;5085135;28;20232;-80
2022/09/25 02:43:08;;;;;;;1.10;1.10;;;;;;;;;;5092947;28;20209;-79
2022/09/25 02:45:42;;;;;;;1.83;1.70;;;;;;;;;;5094421;28;20196;-80
2022/09/25 02:48:13;;;;;;;1.37;1.27;;;;;;;;;;5094767;28;20208;-79
2022/09/25 02:50:47;;;;;;;1.43;1.27;;;;;;;;;;5093675;28;20200;-80
2022/09/25 02:53:17;;;;;;;1.20;1.20;;;;;;;;;;5094275;28;20717;-79
2022/09/25 02:55:48;;;;;;;1.10;1.00;;;;;;;;;;5094331;28;20200;-79
2022/09/25 02:58:17;;;;;;;1.50;1.40;;;;;;;;;;5094078;28;20277;-79
2022/09/25 03:00:48;;;;;;;1.97;1.67;;;;;;;;;;5093904;28;20232;-79
2022/09/25 03:03:19;;;;;;;0.97;0.97;;;;;;;;;;5086093;28;20234;-79
2022/09/25 03:05:47;;;;;;;2.90;1.80;;;;;;;;;;5089570;28;20284;-79
2022/09/25 03:10:58;;;;;;;1.00;1.00;;;;;;;;;;5093887;28;20223;-78
2022/09/25 03:13:30;;;;;;;1.63;1.30;;;;;;;;;;5093838;28;20627;-78
2022/09/25 03:16:01;;;;;;;1.57;1.47;;;;;;;;;;5093752;28;20207;-79
2022/09/25 03:18:30;;;;;;;1.67;1.57;;;;;;;;;;5093610;28;20197;-78
2022/09/25 03:20:56;;;;;;;1.67;1.57;;;;;;;;;;5093348;28;20664;-78
2022/09/25 03:23:23;;;;;;;1.00;1.00;;;;;;;;;;5093905;28;20248;-79
2022/09/25 03:25:53;;;;;;;1.27;1.27;;;;;;;;;;5085696;28;20201;-78
2022/09/25 03:28:20;;;;;;;1.57;1.47;;;;;;;;;;5092044;28;20279;-79
2022/09/25 03:30:57;;;;;;;1.00;1.00;;;;;;;;;;5086449;28;20270;-79
2022/09/25 03:33:25;;;;;;;1.37;1.30;;;;;;;;;;5087789;28;20196;-79
2022/09/25 03:36:00;;;;;;;1.10;0.93;;;;;;;;;;5093442;28;20204;-79
2022/09/25 03:38:27;;;;;;;0.93;0.93;;;;;;;;;;5087435;28;20204;-79
2022/09/25 03:40:54;;;;;;;1.00;1.00;;;;;;;;;;5081680;28;20298;-79
2022/09/25 03:43:20;;;;;;;8.47;6.27;;;;;;;;;;5092321;28;20207;-79
2022/09/25 03:45:47;;;;;;;5.40;4.90;;;;;;;;;;5077802;28;20209;-79
2022/09/25 03:48:14;;;;;;;4.00;2.70;;;;;;;;;;5075710;28;20204;-78
2022/09/25 03:50:42;;;;;;;1.80;1.70;;;;;;;;;;5082726;28;20197;-78
2022/09/25 03:53:09;;;;;;;1.90;1.80;;;;;;;;;;5092605;28;20207;-78
2022/09/25 03:55:36;;;;;;;1.57;1.47;;;;;;;;;;5091669;28;20197;-79
2022/09/25 03:58:02;;;;;;;1.60;1.50;;;;;;;;;;5087976;28;20215;-78
2022/09/25 04:00:29;;;;;;;1.50;1.40;;;;;;;;;;5092732;28;20211;-79
2022/09/25 04:02:58;;;;;;;2.10;1.90;;;;;;;;;;5092798;28;20687;-79
2022/09/25 04:05:25;;;;;;;2.03;1.93;;;;;;;;;;5092033;28;20266;-79
2022/09/25 04:07:53;;;;;;;0.90;0.90;;;;;;;;;;5087430;28;20200;-79
2022/09/25 04:10:19;;;;;;;1.63;1.53;;;;;;;;;;5092600;28;20257;-79
2022/09/25 04:12:46;;;;;;;2.47;2.27;;;;;;;;;;5092802;28;20215;-79
2022/09/25 04:15:13;;;;;;;1.80;1.70;;;;;;;;;;5092788;28;20204;-79
2022/09/25 04:17:40;;;;;;;3.33;3.03;;;;;;;;;;5092883;28;20211;-79
2022/09/25 04:20:08;;;;;;;2.40;2.20;;;;;;;;;;5077839;28;20232;-79
2022/09/25 04:22:35;;;;;;;2.30;1.93;;;;;;;;;;5092464;28;20223;-79
2022/09/25 04:25:03;;;;;;;2.27;2.07;;;;;;;;;;5092691;28;20212;-79
2022/09/25 04:27:31;;;;;;;1.60;1.50;;;;;;;;;;5092652;28;20223;-79
2022/09/25 04:29:57;;;;;;;1.50;1.40;;;;;;;;;;5092364;28;20205;-79
2022/09/25 04:35:09;;;;;;;1.47;1.37;;;;;;;;;;5091908;28;20303;-78
2022/09/25 04:37:35;;;;;;;1.13;1.13;;;;;;;;;;5090503;28;20201;-79
2022/09/25 04:40:04;;;;;;;1.57;1.47;;;;;;;;;;5085347;28;20208;-78
2022/09/25 04:42:31;;;;;;;1.27;1.27;;;;;;;;;;5087367;28;20223;-79
2022/09/25 04:44:58;;;;;;;1.80;1.40;;;;;;;;;;5091539;28;20211;-78
2022/09/25 04:47:27;;;;;;;1.80;1.70;;;;;;;;;;5091281;28;20203;-79
2022/09/25 04:49:54;;;;;;;1.27;1.27;;;;;;;;;;5092285;28;20207;-80
2022/09/25 04:52:21;;;;;;;1.10;1.10;;;;;;;;;;5091855;28;20215;-79
2022/09/25 04:54:48;;;;;;;1.10;1.03;;;;;;;;;;5091570;28;20204;-79
2022/09/25 04:57:17;;;;;;;1.50;1.40;;;;;;;;;;5092132;28;20200;-79
2022/09/25 04:59:44;;;;;;;1.57;1.27;;;;;;;;;;5091708;28;20203;-79
2022/09/25 05:02:11;;;;;;;1.43;1.33;;;;;;;;;;5091338;28;20224;-79
2022/09/25 05:04:38;;;;;;;1.57;1.47;;;;;;;;;;5091542;28;20211;-79
2022/09/25 05:07:05;;;;;;;1.00;1.00;;;;;;;;;;5084179;28;20232;-79
2022/09/25 05:09:32;;;;;;;2.43;2.23;;;;;;;;;;5091073;28;20193;-79
2022/09/25 05:11:59;;;;;;;1.90;1.70;;;;;;;;;;5091435;28;20219;-79
2022/09/25 05:14:29;;;;;;;2.20;1.83;;;;;;;;;;5091175;28;20207;-79
2022/09/25 05:16:56;;;;;;;1.50;1.30;;;;;;;;;;5091381;28;20200;-79
2022/09/25 05:19:23;;;;;;;1.77;1.60;;;;;;;;;;5091346;28;20227;-79
2022/09/25 05:21:53;;;;;;;1.57;1.47;;;;;;;;;;5091395;28;20230;-80
2022/09/25 05:24:21;;;;;;;1.47;1.47;;;;;;;;;;5089970;28;20599;-79
2022/09/25 05:26:48;;;;;;;4.93;4.07;;;;;;;;;;5091497;28;20212;-79
2022/09/25 05:29:15;;;;;;;4.37;3.63;;;;;;;;;;5090976;28;20196;-79
2022/09/25 05:31:45;;;;;;;4.40;3.27;;;;;;;;;;5076927;28;20205;-79
2022/09/25 05:34:12;;;;;;;2.50;2.30;;;;;;;;;;5091002;28;20197;-79
2022/09/25 05:36:39;;;;;;;1.90;1.80;;;;;;;;;;5090902;28;20207;-79
2022/09/25 05:39:06;;;;;;;4.70;4.07;;;;;;;;;;5084317;28;20219;-80
2022/09/25 05:41:35;;;;;;;4.77;3.03;;;;;;;;;;5081980;28;20583;-79
2022/09/25 05:44:05;;;;;;;2.23;2.03;;;;;;;;;;5090613;28;20204;-79
2022/09/25 05:46:32;;;;;;;2.27;2.00;;;;;;;;;;5073305;28;20697;-77
2022/09/25 05:49:00;;;;;;;3.93;3.07;;;;;;;;;;5090614;28;20878;-76
2022/09/25 05:51:27;;;;;;;2.90;2.70;;;;;;;;;;5090709;28;20212;-76
2022/09/25 05:53:54;;;;;;;3.27;2.57;;;;;;;;;;5090405;28;20204;-76
2022/09/25 05:56:23;;;;;;;3.23;2.50;;;;;;;;;;5090226;28;20212;-77
2022/09/25 05:58:51;;;;;;;3.73;2.73;;;;;;;;;;5090647;28;20204;-77
2022/09/25 06:01:17;;;;;;;2.33;2.13;;;;;;;;;;5090845;28;20204;-79
2022/09/25 06:03:45;;;;;;;3.17;2.80;;;;;;;;;;5090131;28;20204;-79
2022/09/25 06:06:13;;;;;;;4.13;2.63;;;;;;;;;;5087385;28;20208;-79
2022/09/25 06:08:40;;;;;;;1.77;1.67;;;;;;;;;;5080715;28;20578;-79
2022/09/25 06:11:08;;;;;;;1.90;1.77;;;;;;;;;;5090392;28;20686;-79
2022/09/25 06:13:35;;;;;;;2.37;2.17;;;;;;;;;;5090378;28;20266;-79
2022/09/25 06:16:04;;;;;;;2.50;2.27;;;;;;;;;;5090159;28;20208;-79
2022/09/25 06:18:31;;;;;;;3.10;2.10;;;;;;;;;;5090228;28;20204;-77
2022/09/25 06:21:02;;;;;;;2.37;2.17;;;;;;;;;;5089884;28;20664;-78
2022/09/25 06:23:31;;;;;;;2.27;2.07;;;;;;;;;;5089933;28;20249;-77
2022/09/25 06:26:02;;;;;;;2.13;1.73;;;;;;;;;;5089720;28;20201;-77
2022/09/25 06:28:30;;;;;;;1.90;1.80;;;;;;;;;;5090515;28;20698;-77
2022/09/25 06:31:00;;;;;;;2.57;1.50;;;;;;;;;;5082019;28;20220;-77
2022/09/25 06:33:27;;;;;;;1.60;1.50;;;;;;;;;;5085075;28;20196;-77
2022/09/25 06:35:54;;;;;;;1.40;1.30;;;;;;;;;;5072010;28;20212;-77
2022/09/25 06:38:20;;;;;;;2.07;1.97;;;;;;;;;;5079930;28;20198;-77
2022/09/25 06:40:49;;;;;;;1.60;1.50;;;;;;;;;;5089084;28;20212;-77
2022/09/25 06:43:16;;;;;;;1.50;1.47;;;;;;;;;;5090447;28;20227;-77
2022/09/25 06:45:43;;;;;;;2.60;2.40;;;;;;;;;;5090363;28;20200;-77
2022/09/25 06:48:12;;;;;;;1.93;1.83;;;;;;;;;;5090303;28;20207;-77
2022/09/25 06:50:41;;;;;;;1.30;1.30;;;;;;;;;;5075679;28;20229;-77
2022/09/25 06:53:08;;;;;;;2.73;2.53;;;;;;;;;;5090115;28;20704;-77
2022/09/25 06:55:36;;;;;;;1.90;1.80;;;;;;;;;;5089186;28;20204;-77
2022/09/25 06:58:08;;;;;;;2.23;2.03;;;;;;;;;;5077133;28;20701;-77
2022/09/25 07:00:35;;;;;;;2.53;2.03;;;;;;;;;;5089875;28;20755;-77
2022/09/25 07:05:47;;;;;;;2.00;1.90;;;;;;;;;;5065462;28;20228;-77
2022/09/25 07:08:15;;;;;;;2.10;2.00;;;;;;;;;;5087998;28;20289;-76
2022/09/25 07:10:47;;;;;;;1.50;1.50;;;;;;;;;;5089445;28;20662;-77
2022/09/25 07:13:15;;;;;;;2.37;2.13;;;;;;;;;;5080469;28;20208;-77
2022/09/25 07:15:42;;;;;;;2.03;1.93;;;;;;;;;;5081729;28;20208;-77
2022/09/25 07:18:09;;;;;;;4.30;3.60;;;;;;;;;;5089704;28;20631;-77
2022/09/25 07:20:36;;;;;;;2.73;2.50;;;;;;;;;;5090392;28;20232;-77
2022/09/25 07:23:03;;;;;;;3.13;2.93;;;;;;;;;;5089943;28;20698;-76
2022/09/25 07:25:30;;;;;;;7.57;5.33;;;;;;;;;;5089614;28;20211;-77
2022/09/25 07:27:57;;;;;;;72.10;32.57;;;;;;;;;;5089968;28;20196;-77
2022/09/25 07:30:28;;;;;;;138.83;62.73;;;;;;;;;;5092839;28;20196;-76
2022/09/25 07:32:55;;;;;;;61.93;31.37;;;;;;;;;;5093771;28;20232;-76
2022/09/25 07:35:22;;;;;;;13.03;6.67;;;;;;;;;;5093420;28;20204;-76
2022/09/25 07:37:48;;;;;;;17.43;8.43;;;;;;;;;;5093392;28;20284;-76
2022/09/25 07:40:15;;;;;;;35.27;18.13;;;;;;;;;;5093123;28;20200;-76
2022/09/25 07:42:42;;;;;;;43.73;18.63;;;;;;;;;;5093703;28;20216;-76
2022/09/25 07:45:10;;;;;;;66.53;29.60;;;;;;;;;;5092948;28;20228;-76
2022/09/25 07:47:38;;;;;;;35.17;16.63;;;;;;;;;;5093361;28;20197;-76
2022/09/25 07:50:06;;;;;;;64.03;29.33;;;;;;;;;;5081460;28;20199;-76
2022/09/25 07:52:33;;;;;;;47.07;23.97;;;;;;;;;;5088745;28;20217;-77
2022/09/25 07:54:59;;;;;;;65.43;25.67;;;;;;;;;;5087403;28;20203;-76
2022/09/25 07:57:27;;;;;;;11.97;6.17;;;;;;;;;;5082026;28;20205;-76
2022/09/25 07:59:53;;;;;;;19.50;8.70;;;;;;;;;;5091660;28;20651;-76
2022/09/25 08:02:20;;;;;;;27.07;11.37;;;;;;;;;;5092743;28;20233;-76
2022/09/25 08:04:48;;;;;;;19.57;8.07;;;;;;;;;;5089698;28;20286;-76
2022/09/25 08:07:15;;;;;;;10.67;5.97;;;;;;;;;;5081883;28;20203;-76
2022/09/25 08:09:42;;;;;;;6.43;4.57;;;;;;;;;;5078608;28;20204;-76
2022/09/25 08:12:12;;;;;;;10.53;7.47;;;;;;;;;;5092670;28;20219;-76
2022/09/25 08:14:41;;;;;;;5.90;4.33;;;;;;;;;;5093074;28;20291;-76
2022/09/25 08:17:08;;;;;;;13.50;7.43;;;;;;;;;;5092916;28;20257;-76
2022/09/25 08:19:35;;;;;;;3.70;2.90;;;;;;;;;;5092619;28;20227;-76
2022/09/25 08:22:03;;;;;;;3.83;3.53;;;;;;;;;;5091889;28;20207;-76
2022/09/25 08:24:30;;;;;;;8.23;4.40;;;;;;;;;;5092371;28;20279;-76
2022/09/25 08:26:56;;;;;;;12.33;5.97;;;;;;;;;;5092853;28;20191;-76
2022/09/25 08:29:23;;;;;;;6.90;4.27;;;;;;;;;;5086414;28;20204;-76
2022/09/25 08:31:50;;;;;;;8.43;4.27;;;;;;;;;;5082051;28;20200;-76
2022/09/25 08:34:17;;;;;;;9.77;5.50;;;;;;;;;;5078470;28;20209;-76
2022/09/25 08:36:44;;;;;;;2.80;2.57;;;;;;;;;;5074578;28;20197;-76
2022/09/25 08:39:12;;;;;;;10.50;5.83;;;;;;;;;;5091031;28;20216;-76
2022/09/25 08:41:45;;;;;;;5.67;3.43;;;;;;;;;;5092432;28;20204;-77
2022/09/25 08:44:20;;;;;;;6.27;3.87;;;;;;;;;;5083716;28;20263;-76
2022/09/25 08:49:36;;;;;;;6.73;4.97;;;;;;;;;;5091967;28;20312;-77
2022/09/25 08:52:07;;;;;;;9.23;3.97;;;;;;;;;;5092027;28;20204;-77
2022/09/25 08:54:35;;;;;;;2.37;2.17;;;;;;;;;;5091942;28;20204;-77
2022/09/25 08:57:07;;;;;;;4.17;3.33;;;;;;;;;;5091850;28;20694;-77
2022/09/25 08:59:37;;;;;;;2.60;2.30;;;;;;;;;;5091446;28;20200;-76
2022/09/25 09:02:12;;;;;;;12.30;5.80;;;;;;;;;;5092035;28;20737;-76
2022/09/25 09:04:43;;;;;;;9.17;4.53;;;;;;;;;;5091768;28;20214;-77
2022/09/25 09:07:15;;;;;;;8.37;4.20;;;;;;;;;;5091826;28;20249;-76
2022/09/25 09:09:47;;;;;;;7.07;3.60;;;;;;;;;;5091953;28;20630;-77
2022/09/25 09:12:17;;;;;;;4.90;2.87;;;;;;;;;;5091229;28;20207;-76
2022/09/25 09:14:45;;;;;;;4.80;3.70;;;;;;;;;;5085053;28;20689;-76
2022/09/25 09:17:17;;;;;;;6.50;3.63;;;;;;;;;;5076244;28;20208;-75
2022/09/25 09:19:47;;;;;;;4.40;2.87;;;;;;;;;;5090841;28;20228;-76
2022/09/25 09:22:15;;;;;;;4.53;3.10;;;;;;;;;;5090145;28;20626;-76
2022/09/25 09:24:53;;;;;;;6.40;3.00;;;;;;;;;;5089868;28;20211;-75
2022/09/25 09:27:32;;;;;;;2.53;2.33;;;;;;;;;;5090943;28;20203;-75
2022/09/25 09:30:09;;;;;;;3.97;2.67;;;;;;;;;;5091287;28;20204;-75
2022/09/25 09:32:52;;;;;;;3.27;2.47;;;;;;;;;;5090982;28;20614;-76
2022/09/25 09:35:27;;;;;;;2.67;2.47;;;;;;;;;;5090753;28;20235;-76
2022/09/25 09:38:02;;;;;;;2.20;2.00;;;;;;;;;;5091069;28;20288;-76
2022/09/25 09:40:45;;;;;;;3.13;2.87;;;;;;;;;;5090621;28;20200;-76
2022/09/25 09:43:20;;;;;;;2.13;1.93;;;;;;;;;;5090691;28;20224;-76
2022/09/25 09:45:52;;;;;;;3.97;2.47;;;;;;;;;;5090629;28;20192;-77
2022/09/25 09:48:25;;;;;;;5.70;3.33;;;;;;;;;;5090815;28;20236;-75
2022/09/25 09:50:54;;;;;;;2.87;2.53;;;;;;;;;;5090371;28;20283;-76
2022/09/25 09:53:28;;;;;;;4.57;3.37;;;;;;;;;;5090314;28;20591;-78
2022/09/25 09:56:01;;;;;;;10.23;4.80;;;;;;;;;;5090117;28;20212;-76
2022/09/25 09:58:32;;;;;;;3.90;2.63;;;;;;;;;;5090822;28;20201;-76
2022/09/25 10:00:59;;;;;;;3.07;2.23;;;;;;;;;;5075483;28;20196;-76
2022/09/25 10:03:28;;;;;;;2.47;2.27;;;;;;;;;;5085573;28;20222;-75
2022/09/25 10:05:57;;;;;;;2.60;2.40;;;;;;;;;;5081369;28;20223;-76
2022/09/25 10:08:24;;;;;;;2.70;2.50;;;;;;;;;;5089660;28;20207;-76
2022/09/25 10:10:53;;;;;;;2.93;2.50;;;;;;;;;;5090255;28;20204;-77
2022/09/25 10:13:26;;;;;;;3.53;3.23;;;;;;;;;;5087321;28;20255;-76
2022/09/25 10:15:55;;;;;;;4.90;3.90;;;;;;;;;;5081892;28;20213;-76
2022/09/25 10:18:25;;;;;;;3.87;2.17;;;;;;;;;;5083421;28;20261;-76
2022/09/25 10:20:55;;;;;;;3.20;3.00;;;;;;;;;;5080547;28;20225;-77
2022/09/25 10:23:38;;;;;;;2.57;2.23;;;;;;;;;;5084252;28;20230;-77
2022/09/25 10:26:25;;;;;;;2.90;2.70;;;;;;;;;;5079058;28;20253;-77
2022/09/25 10:28:56;;;;;;;2.13;2.03;;;;;;;;;;5083763;28;20200;-77
2022/09/25 10:31:24;;;;;;;2.03;1.90;;;;;;;;;;5078447;28;20212;-76
2022/09/25 10:33:59;;;;;;;3.23;2.60;;;;;;;;;;5088299;28;20211;-76
2022/09/25 10:36:36;;;;;;;3.20;2.50;;;;;;;;;;5090438;28;20199;-76
2022/09/25 10:39:04;;;;;;;5.97;2.73;;;;;;;;;;5090088;28;20207;-76
2022/09/25 10:41:41;;;;;;;3.57;3.23;;;;;;;;;;5078475;28;20213;-77
2022/09/25 10:44:20;;;;;;;4.90;2.93;;;;;;;;;;5088689;28;20627;-76
2022/09/25 10:52:29;;;;;;;1.93;1.83;;;;;;;;;;5090392;28;20207;-76
2022/09/25 10:55:15;;;;;;;2.13;1.87;;;;;;;;;;5090331;28;20648;-76
2022/09/25 10:57:45;;;;;;;2.20;2.00;;;;;;;;;;5090260;28;20674;-77
2022/09/25 11:00:21;;;;;;;2.40;2.20;;;;;;;;;;5089867;28;20207;-76
2022/09/25 11:02:52;;;;;;;2.77;2.50;;;;;;;;;;5090416;28;20208;-76
2022/09/25 11:05:29;;;;;;;2.83;2.10;;;;;;;;;;5093906;28;20215;-77
2022/09/25 11:07:58;;;;;;;2.40;2.20;;;;;;;;;;5094478;28;20208;-77
2022/09/25 11:10:28;;;;;;;2.13;2.03;;;;;;;;;;5093824;28;20242;-76
2022/09/25 11:12:56;;;;;;;2.07;1.97;;;;;;;;;;5094082;28;20200;-78
2022/09/25 11:15:26;;;;;;;1.70;1.60;;;;;;;;;;5093849;28;20201;-76
2022/09/25 11:17:54;;;;;;;2.27;1.90;;;;;;;;;;5093827;28;20283;-78
2022/09/25 11:20:28;;;;;;;2.30;2.13;;;;;;;;;;5093633;28;20227;-77
2022/09/25 11:23:10;;;;;;;2.63;2.53;;;;;;;;;;5093623;28;20695;-77
2022/09/25 11:25:57;;;;;;;2.30;2.10;;;;;;;;;;5093429;28;20204;-78
2022/09/25 11:28:30;;;;;;;6.00;4.40;;;;;;;;;;5093758;28;20208;-77
2022/09/25 11:31:02;;;;;;;5.80;3.83;;;;;;;;;;5093558;28;20201;-77
2022/09/25 11:33:34;;;;;;;8.93;4.60;;;;;;;;;;5092828;28;20227;-77
2022/09/25 11:36:05;;;;;;;7.90;4.10;;;;;;;;;;5081091;28;20628;-77
2022/09/25 11:41:27;;;;;;;1.83;1.73;;;;;;;;;;5080413;28;20333;-78
2022/09/25 11:44:07;;;;;;;2.63;2.17;;;;;;;;;;5092620;28;20285;-77
2022/09/25 11:46:40;;;;;;;4.17;3.17;;;;;;;;;;5092961;28;20212;-77
2022/09/25 11:49:15;;;;;;;2.40;2.20;;;;;;;;;;5092735;28;20212;-77
2022/09/25 11:51:58;;;;;;;12.13;4.20;;;;;;;;;;5093433;28;20196;-75
2022/09/25 11:54:34;;;;;;;2.73;2.43;;;;;;;;;;5092818;28;20743;-76
2022/09/25 11:57:04;;;;;;;1.70;1.60;;;;;;;;;;5092743;28;20200;-76
2022/09/25 11:59:47;;;;;;;2.40;2.20;;;;;;;;;;5078765;28;20273;-76
2022/09/25 12:02:25;;;;;;;2.40;2.30;;;;;;;;;;5092668;28;20641;-76
2022/09/25 12:05:06;;;;;;;9.37;7.40;;;;;;;;;;5092800;28;20664;-75
2022/09/25 12:07:51;;;;;;;2.47;2.27;;;;;;;;;;5093347;28;20200;-74
2022/09/25 12:10:29;;;;;;;2.97;2.33;;;;;;;;;;5092360;28;20675;-75
2022/09/25 12:13:02;;;;;;;2.50;2.37;;;;;;;;;;5092626;28;20683;-74
2022/09/25 12:15:42;;;;;;;2.43;2.20;;;;;;;;;;5091463;28;20211;-74
2022/09/25 12:18:18;;;;;;;2.83;2.30;;;;;;;;;;5092760;28;20204;-74
2022/09/25 12:20:48;;;;;;;2.10;2.00;;;;;;;;;;5092130;28;20591;-72
2022/09/25 12:23:21;;;;;;;1.67;1.57;;;;;;;;;;5092580;28;20220;-73
2022/09/25 12:26:04;;;;;;;3.23;2.17;;;;;;;;;;5092183;28;20265;-74
2022/09/25 12:28:41;;;;;;;1.90;1.80;;;;;;;;;;5092680;28;20647;-75
2022/09/25 12:31:14;;;;;;;4.90;3.87;;;;;;;;;;5082311;28;20256;-75
2022/09/25 12:33:51;;;;;;;2.80;2.60;;;;;;;;;;5085494;28;20207;-75
2022/09/25 12:36:23;;;;;;;1.87;1.60;;;;;;;;;;5080652;28;20204;-76
2022/09/25 12:38:54;;;;;;;2.00;1.70;;;;;;;;;;5082732;28;20245;-76
2022/09/25 12:41:28;;;;;;;2.13;2.03;;;;;;;;;;5090828;28;20204;-77
2022/09/25 12:44:00;;;;;;;1.90;1.80;;;;;;;;;;5091681;28;20284;-76
2022/09/25 12:46:30;;;;;;;2.30;1.83;;;;;;;;;;5091401;28;20596;-75
2022/09/25 12:49:04;;;;;;;2.80;2.60;;;;;;;;;;5091383;28;20200;-76
2022/09/25 12:51:34;;;;;;;2.17;2.07;;;;;;;;;;5091555;28;20204;-76
2022/09/25 12:54:04;;;;;;;2.20;1.87;;;;;;;;;;5091510;28;20204;-76
2022/09/25 12:56:34;;;;;;;2.40;2.20;;;;;;;;;;5091486;28;20205;-76
2022/09/25 12:59:05;;;;;;;2.90;2.50;;;;;;;;;;5078196;28;20212;-75
2022/09/25 13:01:38;;;;;;;2.70;2.50;;;;;;;;;;5091724;28;20236;-76
2022/09/25 13:04:36;;;;;;;1.93;1.83;;;;;;;;;;5091910;28;20220;-76
2022/09/25 13:07:08;;;;;;;1.70;1.60;;;;;;;;;;5084655;28;20690;-75
2022/09/25 13:09:40;;;;;;;4.57;3.70;;;;;;;;;;5091432;28;20204;-75
2022/09/25 13:12:14;;;;;;;4.97;4.27;;;;;;;;;;5088146;28;20258;-76
2022/09/25 13:14:45;;;;;;;2.37;2.17;;;;;;;;;;5075745;28;20193;-76
2022/09/25 13:17:14;;;;;;;2.17;2.07;;;;;;;;;;5090524;28;20200;-75
2022/09/25 13:19:43;;;;;;;2.53;2.33;;;;;;;;;;5090651;28;20698;-76
2022/09/25 13:22:11;;;;;;;1.77;1.67;;;;;;;;;;5089798;28;20196;-76
2022/09/25 13:24:45;;;;;;;1.57;1.47;;;;;;;;;;5090346;28;20220;-76
2022/09/25 13:27:17;;;;;;;1.60;1.50;;;;;;;;;;5089918;28;20201;-76
2022/09/25 13:29:52;;;;;;;2.50;2.30;;;;;;;;;;5089729;28;20223;-76
2022/09/25 13:32:22;;;;;;;24.97;13.63;;;;;;;;;;5089763;28;20195;-76
2022/09/25 13:34:52;;;;;;;26.03;15.60;;;;;;;;;;5090217;28;20576;-76
2022/09/25 13:37:18;;;;;;;6.03;4.50;;;;;;;;;;5090702;28;20200;-76
2022/09/25 13:42:36;;;;;;;2.07;1.97;;;;;;;;;;5081385;28;20211;-76
2022/09/25 13:45:29;;;;;;;1.60;1.50;;;;;;;;;;5089892;28;20315;-76
2022/09/25 13:47:58;;;;;;;1.77;1.67;;;;;;;;;;5090835;28;20211;-76
2022/09/25 13:50:35;;;;;;;2.90;2.70;;;;;;;;;;5090533;28;20211;-76
2022/09/25 13:53:16;;;;;;;1.73;1.63;;;;;;;;;;5089515;28;20279;-76
2022/09/25 13:56:04;;;;;;;1.53;1.43;;;;;;;;;;5086630;28;20318;-76
2022/09/25 13:58:32;;;;;;;1.77;1.67;;;;;;;;;;5087207;28;20208;-76
2022/09/25 14:00:59;;;;;;;1.80;1.70;;;;;;;;;;5087077;28;20204;-76
2022/09/25 14:03:34;;;;;;;1.40;1.30;;;;;;;;;;5078043;28;20645;-76
2022/09/25 14:06:03;;;;;;;1.87;1.70;;;;;;;;;;5088546;28;20210;-76
2022/09/25 14:08:32;;;;;;;1.63;1.53;;;;;;;;;;5089332;28;20291;-76
2022/09/25 14:11:01;;;;;;;1.77;1.67;;;;;;;;;;5089496;28;20212;-76
2022/09/25 14:13:29;;;;;;;2.17;1.63;;;;;;;;;;5089222;28;20625;-76
2022/09/25 14:15:59;;;;;;;1.40;1.40;;;;;;;;;;5089451;28;20261;-76
2022/09/25 14:18:35;;;;;;;1.57;1.47;;;;;;;;;;5076119;28;20192;-76
2022/09/25 14:21:05;;;;;;;2.77;2.57;;;;;;;;;;5086690;28;20224;-76
2022/09/25 14:23:32;;;;;;;2.00;1.90;;;;;;;;;;5088753;28;20202;-76
2022/09/25 14:25:59;;;;;;;2.03;1.93;;;;;;;;;;5080064;28;20231;-76
2022/09/25 14:28:28;;;;;;;1.70;1.60;;;;;;;;;;5090492;28;20200;-76
2022/09/25 14:31:09;;;;;;;1.80;1.70;;;;;;;;;;5076373;28;20225;-76
2022/09/25 14:33:50;;;;;;;1.33;1.33;;;;;;;;;;5083810;28;20713;-76
2022/09/25 14:36:27;;;;;;;1.80;1.47;;;;;;;;;;5079606;28;20766;-76
2022/09/25 14:39:10;;;;;;;1.77;1.67;;;;;;;;;;5090423;28;20949;-75
2022/09/25 14:41:55;;;;;;;1.60;1.50;;;;;;;;;;5081485;28;20205;-76
2022/09/25 14:44:50;;;;;;;1.93;1.73;;;;;;;;;;5087258;28;20228;-75
2022/09/25 14:47:19;;;;;;;1.93;1.50;;;;;;;;;;5092183;28;20196;-76
2022/09/25 14:49:49;;;;;;;22.00;11.63;;;;;;;;;;5093046;28;20203;-75
2022/09/25 14:52:22;;;;;;;5.63;4.20;;;;;;;;;;5092836;28;20204;-76
2022/09/25 14:54:53;;;;;;;1.50;1.40;;;;;;;;;;5090787;28;20286;-76
2022/09/25 14:57:25;;;;;;;1.40;1.30;;;;;;;;;;5082830;28;20287;-75
2022/09/25 14:59:54;;;;;;;2.40;2.20;;;;;;;;;;5093669;28;20200;-75
2022/09/25 15:02:23;;;;;;;2.03;1.83;;;;;;;;;;5093576;28;20622;-75
2022/09/25 15:04:51;;;;;;;2.93;1.87;;;;;;;;;;5093802;28;20219;-75
2022/09/25 15:07:23;;;;;;;1.60;1.50;;;;;;;;;;5092689;28;20219;-75
2022/09/25 15:09:54;;;;;;;1.67;1.57;;;;;;;;;;5087953;28;20218;-75
2022/09/25 15:12:25;;;;;;;1.40;1.30;;;;;;;;;;5089324;28;20215;-75
2022/09/25 15:15:03;;;;;;;1.70;1.60;;;;;;;;;;5093514;28;20658;-75
2022/09/25 15:17:30;;;;;;;1.67;1.57;;;;;;;;;;5094354;28;20199;-75
2022/09/25 15:19:58;;;;;;;1.87;1.77;;;;;;;;;;5093304;28;20232;-76
2022/09/25 15:22:30;;;;;;;1.90;1.80;;;;;;;;;;5091596;28;20666;-75
2022/09/25 15:24:59;;;;;;;1.57;1.47;;;;;;;;;;5092126;28;20223;-75